Time;durP1;ratioP1;P1;durP2;ratioP2;P2;SDS_P1;SDS_P2;PMS_P1;PMS_P2;Temp;Humidity;BMP_temperature;BMP_pressure;BME280_temperature;BME280_humidity;BME280_pressure;Samples;Min_cycle;Max_cycle;Signal;HPM_P1;HPM_P2
2023/07/08 00:01:04;;;;;;;2.10;1.70;;;26.60;99.90;;;;;;4874098;29;20217;-96
2023/07/08 00:03:39;;;;;;;1.83;1.50;;;26.60;99.90;;;;;;4880610;29;20210;-92
2023/07/08 00:06:17;;;;;;;2.37;1.30;;;25.90;99.90;;;;;;4884504;29;20572;-89
2023/07/08 00:08:49;;;;;;;2.77;1.40;;;26.10;99.90;;;;;;4881678;29;20218;-89
2023/07/08 00:11:21;;;;;;;2.63;1.40;;;25.70;99.90;;;;;;4880951;29;20207;-90
2023/07/08 00:13:53;;;;;;;3.77;1.93;;;25.40;99.90;;;;;;4892780;29;20233;-89
2023/07/08 00:16:32;;;;;;;2.43;1.47;;;25.40;99.90;;;;;;4877584;29;20291;-91
2023/07/08 00:19:11;;;;;;;2.07;1.50;;;25.90;99.90;;;;;;4884536;29;20242;-91
2023/07/08 00:21:43;;;;;;;2.53;1.63;;;26.10;99.90;;;;;;4875009;29;20205;-91
2023/07/08 00:24:14;;;;;;;3.03;1.57;;;26.40;99.90;;;;;;4881321;29;20270;-91
2023/07/08 00:26:46;;;;;;;4.27;1.50;;;26.60;99.90;;;;;;4884387;29;20215;-90
2023/07/08 00:29:19;;;;;;;4.00;1.43;;;26.70;99.90;;;;;;4867466;29;20353;-89
2023/07/08 00:31:52;;;;;;;1.93;1.20;;;26.60;99.90;;;;;;4882586;29;20638;-89
2023/07/08 00:34:27;;;;;;;2.23;1.20;;;26.50;99.90;;;;;;4871347;29;20700;-90
2023/07/08 00:36:59;;;;;;;2.83;1.57;;;26.50;99.90;;;;;;4884385;29;20241;-95
2023/07/08 00:39:30;;;;;;;2.10;1.40;;;26.10;99.90;;;;;;4876118;29;20225;-95
2023/07/08 00:42:03;;;;;;;3.20;1.47;;;26.10;99.90;;;;;;4893113;29;20271;-96
2023/07/08 00:44:36;;;;;;;2.83;1.43;;;26.20;99.90;;;;;;4890170;29;20220;-96
2023/07/08 00:47:13;;;;;;;1.47;1.20;;;25.90;99.90;;;;;;4885173;29;20221;-88
2023/07/08 00:49:52;;;;;;;2.70;1.30;;;25.90;99.90;;;;;;4883566;29;20221;-89
2023/07/08 00:52:28;;;;;;;3.73;1.30;;;25.90;99.90;;;;;;4888928;29;20278;-89
2023/07/08 00:55:02;;;;;;;3.33;1.30;;;25.50;99.90;;;;;;4898248;29;20284;-89
2023/07/08 00:57:37;;;;;;;1.80;1.10;;;26.10;99.90;;;;;;4883468;29;20256;-90
2023/07/08 01:00:13;;;;;;;1.83;1.17;;;26.80;99.90;;;;;;4890735;29;20270;-90
2023/07/08 01:02:48;;;;;;;2.53;1.30;;;26.80;99.90;;;;;;4877862;29;20241;-91
2023/07/08 01:05:24;;;;;;;2.77;1.50;;;27.10;99.90;;;;;;4880498;29;20214;-91
2023/07/08 01:08:00;;;;;;;2.43;1.20;;;26.20;99.90;;;;;;4871173;29;20246;-90
2023/07/08 01:10:41;;;;;;;3.07;1.40;;;26.80;99.90;;;;;;4881288;29;20218;-91
2023/07/08 01:13:15;;;;;;;3.43;1.33;;;27.30;99.90;;;;;;4872697;29;20207;-91
2023/07/08 01:15:49;;;;;;;2.47;1.40;;;28.00;99.90;;;;;;4876382;29;20239;-92
2023/07/08 01:18:24;;;;;;;3.30;1.37;;;28.20;99.90;;;;;;4862159;29;20351;-90
2023/07/08 01:20:58;;;;;;;3.47;1.50;;;28.20;99.90;;;;;;4876495;29;20214;-96
2023/07/08 01:23:32;;;;;;;1.93;1.23;;;28.50;99.90;;;;;;4883025;29;20619;-96
2023/07/08 01:26:05;;;;;;;2.63;1.20;;;28.30;99.90;;;;;;4891396;29;20205;-90
2023/07/08 01:28:37;;;;;;;3.77;1.70;;;28.40;99.90;;;;;;4894478;29;20229;-89
2023/07/08 01:31:09;;;;;;;2.30;1.60;;;27.90;99.90;;;;;;4876220;29;20217;-88
2023/07/08 01:33:41;;;;;;;1.97;1.40;;;27.90;99.90;;;;;;4882147;29;20250;-89
2023/07/08 01:36:13;;;;;;;4.23;1.70;;;28.00;99.90;;;;;;4881301;29;20211;-89
2023/07/08 01:38:48;;;;;;;2.95;1.52;;;28.50;99.90;;;;;;4884169;29;20709;-89
2023/07/08 01:41:20;;;;;;;2.70;1.47;;;28.80;99.90;;;;;;4879587;29;20214;-89
2023/07/08 01:43:51;;;;;;;3.90;1.73;;;28.00;99.90;;;;;;4881269;29;20241;-89
2023/07/08 01:46:26;;;;;;;2.92;1.83;;;28.00;99.90;;;;;;4880223;29;20233;-91
2023/07/08 01:49:01;;;;;;;3.47;1.60;;;28.00;99.90;;;;;;4881829;29;20216;-89
2023/07/08 01:51:33;;;;;;;3.75;1.63;;;28.20;99.90;;;;;;4880677;29;20217;-90
2023/07/08 01:54:06;;;;;;;4.10;1.80;;;28.90;99.90;;;;;;4880022;29;20243;-89
2023/07/08 01:56:40;;;;;;;2.40;1.70;;;28.20;99.90;;;;;;4888903;29;20647;-87
2023/07/08 01:59:11;;;;;;;2.40;1.53;;;27.50;99.90;;;;;;4887293;29;20215;-87
2023/07/08 02:01:42;;;;;;;2.93;1.60;;;26.60;99.90;;;;;;4879888;29;20241;-88
2023/07/08 02:04:14;;;;;;;3.07;1.47;;;26.10;99.90;;;;;;4881114;29;20237;-88
2023/07/08 02:06:52;;;;;;;3.40;1.53;;;25.70;99.90;;;;;;4881338;29;20698;-88
2023/07/08 02:09:26;;;;;;;4.03;1.80;;;25.50;99.90;;;;;;4883449;29;20222;-89
2023/07/08 02:11:58;;;;;;;3.30;1.40;;;25.40;99.90;;;;;;4870244;29;20218;-88
2023/07/08 02:14:30;;;;;;;2.47;1.23;;;25.30;99.90;;;;;;4882923;29;20286;-88
2023/07/08 02:17:05;;;;;;;3.77;1.77;;;25.30;99.90;;;;;;4881232;29;20222;-89
2023/07/08 02:19:37;;;;;;;3.63;1.20;;;25.20;99.90;;;;;;4881998;29;20228;-89
2023/07/08 02:22:08;;;;;;;2.63;1.60;;;24.80;99.90;;;;;;4883198;29;20289;-89
2023/07/08 02:24:41;;;;;;;3.53;1.73;;;24.80;99.90;;;;;;4884378;29;20214;-88
2023/07/08 02:27:13;;;;;;;3.60;1.40;;;24.70;99.90;;;;;;4888857;29;20214;-88
2023/07/08 02:29:45;;;;;;;4.17;1.90;;;24.60;99.90;;;;;;4900945;29;20256;-89
2023/07/08 02:32:16;;;;;;;2.87;1.63;;;24.40;99.90;;;;;;4883592;29;20214;-89
2023/07/08 02:34:48;;;;;;;2.27;1.80;;;24.30;99.90;;;;;;4895261;29;20226;-89
2023/07/08 02:37:22;;;;;;;2.47;1.90;;;24.10;99.90;;;;;;4890477;29;20215;-89
2023/07/08 02:39:55;;;;;;;2.03;1.80;;;23.90;99.90;;;;;;4898058;29;20244;-89
2023/07/08 02:42:27;;;;;;;3.47;2.00;;;23.40;99.90;;;;;;4883970;29;20249;-88
2023/07/08 02:44:59;;;;;;;3.47;1.90;;;23.30;99.90;;;;;;4884180;29;20206;-88
2023/07/08 02:47:33;;;;;;;4.17;2.20;;;23.10;99.90;;;;;;4883860;29;20226;-88
2023/07/08 02:50:05;;;;;;;3.77;1.90;;;23.00;99.90;;;;;;4883259;29;20297;-88
2023/07/08 02:52:38;;;;;;;4.10;2.10;;;22.90;99.90;;;;;;4881803;29;20723;-89
2023/07/08 02:55:13;;;;;;;4.00;2.13;;;22.90;99.90;;;;;;4883054;29;20245;-87
2023/07/08 02:57:44;;;;;;;3.33;2.00;;;22.80;99.90;;;;;;4882223;29;20265;-88
2023/07/08 03:00:17;;;;;;;3.77;2.10;;;22.70;99.90;;;;;;4886150;29;20233;-94
2023/07/08 03:02:49;;;;;;;3.90;1.93;;;22.70;99.90;;;;;;4878325;29;20218;-87
2023/07/08 03:05:20;;;;;;;4.17;2.00;;;22.50;99.90;;;;;;4875898;29;20226;-88
2023/07/08 03:07:51;;;;;;;3.93;1.80;;;22.50;99.90;;;;;;4879107;29;20218;-88
2023/07/08 03:10:24;;;;;;;4.97;2.30;;;22.40;99.90;;;;;;4881063;29;20210;-88
2023/07/08 03:12:55;;;;;;;2.83;1.53;;;22.30;99.90;;;;;;4873823;29;20731;-87
2023/07/08 03:15:26;;;;;;;4.67;2.10;;;22.30;99.90;;;;;;4878854;29;20238;-87
2023/07/08 03:17:57;;;;;;;2.47;1.87;;;22.30;99.90;;;;;;4877230;29;20207;-88
2023/07/08 03:20:28;;;;;;;6.13;2.47;;;22.10;99.90;;;;;;4878967;29;20202;-87
2023/07/08 03:22:59;;;;;;;3.63;2.10;;;22.00;99.90;;;;;;4881026;29;20222;-87
2023/07/08 03:25:31;;;;;;;3.50;2.40;;;22.00;99.90;;;;;;4880782;29;20578;-87
2023/07/08 03:28:03;;;;;;;6.83;3.00;;;21.90;99.90;;;;;;4881385;29;20209;-86
2023/07/08 03:30:33;;;;;;;5.90;3.17;;;21.80;99.90;;;;;;4867013;29;20214;-86
2023/07/08 03:33:04;;;;;;;4.13;2.00;;;21.70;99.90;;;;;;4879612;29;20210;-87
2023/07/08 03:35:35;;;;;;;3.37;2.30;;;21.60;99.90;;;;;;4881008;29;20256;-96
2023/07/08 03:38:06;;;;;;;3.70;2.17;;;21.50;99.90;;;;;;4879413;29;20672;-89
2023/07/08 03:40:40;;;;;;;2.87;1.63;;;21.50;99.90;;;;;;4878695;29;20308;-90
2023/07/08 03:43:11;;;;;;;4.43;2.10;;;21.40;99.90;;;;;;4881690;29;20214;-89
2023/07/08 03:45:43;;;;;;;3.93;1.90;;;21.30;99.90;;;;;;4881464;29;20209;-88
2023/07/08 03:48:14;;;;;;;3.70;2.20;;;21.20;99.90;;;;;;4881419;29;20214;-89
2023/07/08 03:50:45;;;;;;;3.90;2.30;;;21.10;99.90;;;;;;4878114;29;20606;-88
2023/07/08 03:53:16;;;;;;;3.63;1.93;;;21.10;99.90;;;;;;4875870;29;20238;-89
2023/07/08 03:55:50;;;;;;;4.07;2.17;;;21.00;99.90;;;;;;4879061;29;20658;-88
2023/07/08 03:58:21;;;;;;;5.63;2.03;;;20.90;99.90;;;;;;4878995;29;20230;-90
2023/07/08 04:00:53;;;;;;;3.83;2.10;;;20.80;99.90;;;;;;4877919;29;20241;-89
2023/07/08 04:03:25;;;;;;;5.87;2.20;;;20.90;99.90;;;;;;4879126;29;20210;-89
2023/07/08 04:05:56;;;;;;;9.57;2.37;;;20.80;99.90;;;;;;4877560;29;20818;-86
2023/07/08 04:08:27;;;;;;;4.00;2.07;;;20.70;99.90;;;;;;4878165;29;20574;-88
2023/07/08 04:11:00;;;;;;;3.57;1.93;;;20.60;99.90;;;;;;4876437;29;20294;-89
2023/07/08 04:13:31;;;;;;;5.03;2.10;;;20.50;99.90;;;;;;4881659;29;20217;-89
2023/07/08 04:16:08;;;;;;;4.20;1.93;;;20.40;99.90;;;;;;4876634;29;20247;-89
2023/07/08 04:18:40;;;;;;;5.23;2.00;;;20.40;99.90;;;;;;4880430;29;20245;-88
2023/07/08 04:21:11;;;;;;;5.57;2.50;;;20.30;99.90;;;;;;4872921;29;20212;-88
2023/07/08 04:23:46;;;;;;;4.83;1.83;;;20.30;99.90;;;;;;4881358;29;20221;-88
2023/07/08 04:26:20;;;;;;;5.03;1.67;;;20.20;99.90;;;;;;4876093;29;20643;-89
2023/07/08 04:28:52;;;;;;;3.47;1.87;;;20.10;99.90;;;;;;4880552;29;20694;-89
2023/07/08 04:31:23;;;;;;;6.33;2.00;;;20.00;99.90;;;;;;4880941;29;20271;-89
2023/07/08 04:33:55;;;;;;;8.27;2.23;;;20.00;99.90;;;;;;4879773;29;20309;-88
2023/07/08 04:36:27;;;;;;;4.17;1.87;;;20.00;99.90;;;;;;4879768;29;20231;-88
2023/07/08 04:38:59;;;;;;;5.23;2.10;;;19.90;99.90;;;;;;4882048;29;20211;-88
2023/07/08 04:41:33;;;;;;;3.30;1.80;;;19.90;99.90;;;;;;4876387;29;20730;-89
2023/07/08 04:44:04;;;;;;;3.97;1.90;;;19.80;99.90;;;;;;4872006;29;20214;-88
2023/07/08 04:46:39;;;;;;;3.97;1.67;;;19.70;99.90;;;;;;4887658;29;20270;-88
2023/07/08 04:49:11;;;;;;;3.03;1.70;;;19.70;99.90;;;;;;4892949;29;20202;-88
2023/07/08 04:51:45;;;;;;;5.40;1.97;;;19.60;99.90;;;;;;4890562;29;20266;-89
2023/07/08 04:54:17;;;;;;;4.67;2.10;;;19.70;99.90;;;;;;4889086;29;20239;-88
2023/07/08 04:56:52;;;;;;;6.23;1.87;;;19.60;99.90;;;;;;4880470;29;20234;-87
2023/07/08 04:59:27;;;;;;;7.40;2.00;;;19.50;99.90;;;;;;4875277;29;20246;-89
2023/07/08 05:01:59;;;;;;;7.30;2.33;;;19.50;99.90;;;;;;4876889;29;20210;-89
2023/07/08 05:04:30;;;;;;;4.70;1.83;;;19.40;99.90;;;;;;4877612;29;20228;-88
2023/07/08 05:07:02;;;;;;;4.27;1.70;;;19.30;99.90;;;;;;4880953;29;20229;-89
2023/07/08 05:09:35;;;;;;;4.07;1.80;;;19.30;99.90;;;;;;4882917;29;20217;-89
2023/07/08 05:12:10;;;;;;;4.40;2.43;;;19.20;99.90;;;;;;4879387;29;20265;-89
2023/07/08 05:14:42;;;;;;;5.37;1.87;;;19.20;99.90;;;;;;4885760;29;20206;-89
2023/07/08 05:17:14;;;;;;;4.77;2.00;;;19.10;99.90;;;;;;4881278;29;20238;-89
2023/07/08 05:19:46;;;;;;;4.60;2.17;;;19.00;99.90;;;;;;4875641;29;20233;-89
2023/07/08 05:22:18;;;;;;;3.20;1.70;;;19.00;99.90;;;;;;4878304;29;20206;-89
2023/07/08 05:24:52;;;;;;;4.33;1.70;;;18.90;99.90;;;;;;4875915;29;20298;-89
2023/07/08 05:27:26;;;;;;;3.77;2.03;;;18.90;99.90;;;;;;4892195;29;20296;-89
2023/07/08 05:29:59;;;;;;;4.03;1.97;;;18.80;99.90;;;;;;4885605;29;20209;-89
2023/07/08 05:32:30;;;;;;;2.30;1.60;;;18.70;99.90;;;;;;4882076;29;20314;-89
2023/07/08 05:35:03;;;;;;;4.27;1.93;;;18.60;99.90;;;;;;4877085;29;20659;-89
2023/07/08 05:37:39;;;;;;;2.50;1.60;;;18.50;99.90;;;;;;4884670;29;20234;-89
2023/07/08 05:40:11;;;;;;;3.97;1.70;;;18.50;99.90;;;;;;4882464;29;20206;-89
2023/07/08 05:42:44;;;;;;;3.40;1.77;;;18.50;99.90;;;;;;4879655;29;20286;-89
2023/07/08 05:45:16;;;;;;;3.27;1.97;;;18.40;99.90;;;;;;4884160;29;20279;-89
2023/07/08 05:47:47;;;;;;;4.37;2.00;;;18.30;99.90;;;;;;4882759;29;20217;-88
2023/07/08 05:50:19;;;;;;;5.00;1.23;;;18.20;99.90;;;;;;4878417;29;20207;-87
2023/07/08 05:52:51;;;;;;;4.97;2.27;;;18.20;99.90;;;;;;4881406;29;20226;-88
2023/07/08 05:55:23;;;;;;;2.23;1.33;;;18.20;99.90;;;;;;4881441;29;20210;-88
2023/07/08 05:57:56;;;;;;;2.23;1.40;;;18.10;99.90;;;;;;4885280;29;20236;-88
2023/07/08 06:00:28;;;;;;;3.23;1.40;;;18.10;99.90;;;;;;4878849;29;20225;-89
2023/07/08 06:03:08;;;;;;;2.80;1.60;;;18.00;99.90;;;;;;4875107;29;20282;-88
2023/07/08 06:05:40;;;;;;;1.77;1.10;;;18.00;99.90;;;;;;4876770;29;21019;-88
2023/07/08 06:08:13;;;;;;;5.10;2.03;;;17.80;99.90;;;;;;4879568;29;20210;-87
2023/07/08 06:10:45;;;;;;;5.43;1.50;;;17.70;99.90;;;;;;4891803;29;20218;-89
2023/07/08 06:13:18;;;;;;;2.13;1.10;;;17.70;99.90;;;;;;4884782;29;20209;-87
2023/07/08 06:15:50;;;;;;;2.50;1.13;;;17.70;99.90;;;;;;4881330;29;20218;-89
2023/07/08 06:18:22;;;;;;;1.77;1.20;;;17.70;99.90;;;;;;4883855;29;20558;-90
2023/07/08 06:20:58;;;;;;;3.33;1.20;;;17.60;99.90;;;;;;4890944;29;20297;-89
2023/07/08 06:23:30;;;;;;;3.47;1.30;;;17.60;99.90;;;;;;4883199;29;20206;-90
2023/07/08 06:26:02;;;;;;;2.97;1.20;;;17.50;99.90;;;;;;4893018;29;20211;-89
2023/07/08 06:28:36;;;;;;;1.70;1.00;;;17.50;99.90;;;;;;4888326;29;20202;-89
2023/07/08 06:31:08;;;;;;;2.00;1.10;;;17.40;99.90;;;;;;4888336;29;20201;-90
2023/07/08 06:33:40;;;;;;;2.63;1.03;;;17.40;99.90;;;;;;4884907;29;20263;-90
2023/07/08 06:36:12;;;;;;;1.20;1.00;;;17.40;99.90;;;;;;4889760;29;20206;-88
2023/07/08 06:38:43;;;;;;;2.23;1.10;;;17.40;99.90;;;;;;4878156;29;20231;-89
2023/07/08 06:41:15;;;;;;;3.03;1.57;;;17.30;99.90;;;;;;4879456;29;20224;-89
2023/07/08 06:43:49;;;;;;;1.57;1.20;;;17.30;99.90;;;;;;4868644;29;20279;-90
2023/07/08 06:46:21;;;;;;;2.53;0.83;;;17.20;99.90;;;;;;4867687;29;20256;-90
2023/07/08 06:48:53;;;;;;;2.63;1.10;;;17.10;99.90;;;;;;4879603;29;20707;-90
2023/07/08 06:51:25;;;;;;;1.53;0.83;;;17.10;99.90;;;;;;4881075;29;20206;-89
2023/07/08 06:53:58;;;;;;;1.53;1.00;;;17.00;99.90;;;;;;4883843;29;20236;-88
2023/07/08 06:56:29;;;;;;;1.77;1.03;;;17.00;99.90;;;;;;4887103;29;20215;-88
2023/07/08 06:59:03;;;;;;;2.83;1.07;;;16.90;99.90;;;;;;4897099;29;20274;-89
2023/07/08 07:01:36;;;;;;;1.67;0.90;;;16.90;99.90;;;;;;4900312;29;20238;-88
2023/07/08 07:04:11;;;;;;;3.53;1.13;;;16.90;99.90;;;;;;4885919;29;20214;-88
2023/07/08 07:06:43;;;;;;;2.17;0.93;;;16.80;99.90;;;;;;4886327;29;20222;-88
2023/07/08 07:09:14;;;;;;;2.60;1.10;;;16.70;99.90;;;;;;4882368;29;20224;-89
2023/07/08 07:11:46;;;;;;;1.40;1.10;;;16.70;99.90;;;;;;4884166;29;20293;-88
2023/07/08 07:14:19;;;;;;;2.77;0.90;;;16.70;99.90;;;;;;4889537;29;20294;-88
2023/07/08 07:16:53;;;;;;;1.00;0.90;;;16.70;99.90;;;;;;4877699;29;20541;-88
2023/07/08 07:19:37;;;;;;;1.93;0.80;;;16.70;99.90;;;;;;4888797;29;20226;-89
2023/07/08 07:22:08;;;;;;;2.17;1.10;;;16.70;99.90;;;;;;4882181;29;20203;-89
2023/07/08 07:24:40;;;;;;;1.67;0.97;;;16.60;99.90;;;;;;4882668;29;20228;-90
2023/07/08 07:27:13;;;;;;;1.87;1.00;;;16.50;99.90;;;;;;4882407;29;20812;-88
2023/07/08 07:29:48;;;;;;;1.87;0.97;;;16.50;99.90;;;;;;4886338;29;20670;-89
2023/07/08 07:32:21;;;;;;;1.60;0.90;;;16.50;99.90;;;;;;4882923;29;20225;-89
2023/07/08 07:34:52;;;;;;;1.00;0.80;;;16.40;99.90;;;;;;4882989;29;20207;-90
2023/07/08 07:37:25;;;;;;;3.20;0.97;;;16.40;99.90;;;;;;4863991;29;20235;-89
2023/07/08 07:39:56;;;;;;;2.47;1.23;;;16.30;99.90;;;;;;4891847;29;20721;-90
2023/07/08 07:42:30;;;;;;;1.97;0.90;;;16.30;99.90;;;;;;4883639;29;20217;-90
2023/07/08 07:45:04;;;;;;;3.10;0.90;;;16.20;99.90;;;;;;4882555;29;20214;-90
2023/07/08 07:47:36;;;;;;;1.93;0.80;;;16.20;99.90;;;;;;4882220;29;20217;-89
2023/07/08 07:50:10;;;;;;;2.33;1.10;;;16.10;99.90;;;;;;4882447;29;20214;-89
2023/07/08 07:52:42;;;;;;;3.40;1.00;;;16.20;99.90;;;;;;4882061;29;20592;-90
2023/07/08 07:55:17;;;;;;;1.10;0.80;;;16.20;99.90;;;;;;4881881;29;20630;-90
2023/07/08 07:57:48;;;;;;;3.43;0.77;;;16.10;99.90;;;;;;4875775;29;20930;-90
2023/07/08 08:00:22;;;;;;;2.03;0.97;;;16.10;99.90;;;;;;4882593;29;20305;-90
2023/07/08 08:02:55;;;;;;;3.40;1.00;;;16.00;99.90;;;;;;4881737;29;20628;-90
2023/07/08 08:05:27;;;;;;;2.87;0.90;;;15.90;99.90;;;;;;4882502;29;20669;-89
2023/07/08 08:07:58;;;;;;;1.23;0.90;;;16.00;99.90;;;;;;4882472;29;20221;-89
2023/07/08 08:10:29;;;;;;;2.97;1.20;;;15.90;99.90;;;;;;4888685;29;20304;-88
2023/07/08 08:13:00;;;;;;;1.30;0.80;;;15.90;99.90;;;;;;4896517;29;20206;-88
2023/07/08 08:15:33;;;;;;;4.30;0.90;;;15.90;99.90;;;;;;4882097;29;20702;-88
2023/07/08 08:18:04;;;;;;;1.20;0.63;;;15.90;99.90;;;;;;4869499;29;20252;-89
2023/07/08 08:20:39;;;;;;;1.83;1.30;;;15.80;99.90;;;;;;4880815;29;20257;-89
2023/07/08 08:23:11;;;;;;;1.20;1.10;;;15.80;99.90;;;;;;4875197;29;20221;-88
2023/07/08 08:25:41;;;;;;;4.00;0.90;;;15.80;99.90;;;;;;4875411;29;20206;-89
2023/07/08 08:28:13;;;;;;;2.53;0.70;;;15.80;99.90;;;;;;4881668;29;20264;-88
2023/07/08 08:30:50;;;;;;;2.50;1.03;;;15.80;99.90;;;;;;4881806;29;20305;-88
2023/07/08 08:33:22;;;;;;;1.83;1.10;;;15.70;99.90;;;;;;4879145;29;20616;-88
2023/07/08 08:35:55;;;;;;;0.90;0.80;;;15.50;99.90;;;;;;4880550;29;20214;-89
2023/07/08 08:38:26;;;;;;;1.97;0.77;;;15.40;99.90;;;;;;4878129;29;20332;-90
2023/07/08 08:40:59;;;;;;;1.07;0.60;;;15.40;99.90;;;;;;4872945;29;20653;-89
2023/07/08 08:43:36;;;;;;;1.47;0.93;;;15.40;99.90;;;;;;4872565;29;20321;-89
2023/07/08 08:46:14;;;;;;;0.73;0.53;;;15.30;99.90;;;;;;4880986;29;20218;-90
2023/07/08 08:49:01;;;;;;;1.27;0.90;;;15.30;99.90;;;;;;4881940;29;20626;-90
2023/07/08 08:51:35;;;;;;;0.83;0.70;;;15.30;99.90;;;;;;4880045;29;20293;-90
2023/07/08 08:54:06;;;;;;;3.13;1.00;;;15.20;99.90;;;;;;4874200;29;20218;-89
2023/07/08 08:56:47;;;;;;;0.97;0.80;;;15.20;99.90;;;;;;4877450;29;20222;-89
2023/07/08 08:59:26;;;;;;;0.97;0.80;;;15.10;99.90;;;;;;4881657;29;20238;-90
2023/07/08 09:02:01;;;;;;;1.47;0.70;;;15.10;99.90;;;;;;4880686;29;20256;-89
2023/07/08 09:04:37;;;;;;;1.43;0.97;;;15.10;99.90;;;;;;4881237;29;20221;-90
2023/07/08 09:07:16;;;;;;;0.80;0.70;;;15.10;99.90;;;;;;4882012;29;20241;-88
2023/07/08 09:09:54;;;;;;;1.10;0.70;;;15.10;99.90;;;;;;4890047;29;20202;-89
2023/07/08 09:12:29;;;;;;;1.43;0.70;;;15.10;99.90;;;;;;4900210;29;20191;-89
2023/07/08 09:15:00;;;;;;;1.07;0.90;;;15.00;99.90;;;;;;4886657;29;20224;-89
2023/07/08 09:17:35;;;;;;;2.13;0.87;;;15.00;99.90;;;;;;4880171;29;20207;-89
2023/07/08 09:20:20;;;;;;;1.00;0.63;;;15.00;99.90;;;;;;4866113;29;20219;-88
2023/07/08 09:22:59;;;;;;;1.10;0.60;;;15.00;99.90;;;;;;4876929;29;20217;-89
2023/07/08 09:25:35;;;;;;;2.80;0.70;;;14.90;99.90;;;;;;4875865;29;20207;-88
2023/07/08 09:28:09;;;;;;;1.53;0.60;;;14.90;99.90;;;;;;4880480;29;20639;-88
2023/07/08 09:30:41;;;;;;;0.80;0.50;;;14.80;99.90;;;;;;4879308;29;20231;-90
2023/07/08 09:33:14;;;;;;;1.63;0.80;;;14.70;99.90;;;;;;4879760;29;20221;-88
2023/07/08 09:35:49;;;;;;;0.70;0.63;;;14.70;99.90;;;;;;4878992;29;20233;-87
2023/07/08 09:38:24;;;;;;;1.17;0.70;;;14.60;99.90;;;;;;4880300;29;20281;-89
2023/07/08 09:40:56;;;;;;;1.17;0.90;;;14.60;99.90;;;;;;4879401;29;20228;-90
2023/07/08 09:43:36;;;;;;;1.90;1.00;;;14.50;99.90;;;;;;4880694;29;20648;-90
2023/07/08 09:46:13;;;;;;;1.90;0.93;;;14.50;99.90;;;;;;4879882;29;20206;-90
2023/07/08 09:48:47;;;;;;;1.27;0.80;;;14.50;99.90;;;;;;4880985;29;20242;-91
2023/07/08 09:51:19;;;;;;;0.70;0.70;;;14.50;99.90;;;;;;4888204;29;20674;-89
2023/07/08 09:53:50;;;;;;;1.03;0.93;;;14.50;99.90;;;;;;4890796;29;20210;-90
2023/07/08 09:56:22;;;;;;;1.53;0.93;;;14.60;99.90;;;;;;4875494;29;20660;-89
2023/07/08 09:58:53;;;;;;;0.90;0.77;;;14.60;99.90;;;;;;4876869;29;20230;-89
2023/07/08 10:01:29;;;;;;;1.30;0.73;;;14.50;99.90;;;;;;4879058;29;20214;-89
2023/07/08 10:04:06;;;;;;;1.57;0.87;;;14.40;99.90;;;;;;4879898;29;20234;-90
2023/07/08 10:06:38;;;;;;;1.57;0.57;;;14.30;99.90;;;;;;4880179;29;20206;-91
2023/07/08 10:09:19;;;;;;;0.97;0.43;;;14.30;99.90;;;;;;4881152;29;20218;-89
2023/07/08 10:11:57;;;;;;;0.87;0.60;;;14.30;99.90;;;;;;4869512;29;20254;-90
2023/07/08 10:14:34;;;;;;;1.07;0.77;;;14.30;99.90;;;;;;4867828;29;20211;-88
2023/07/08 10:17:06;;;;;;;0.73;0.73;;;14.20;99.90;;;;;;4861170;29;20222;-89
2023/07/08 10:19:41;;;;;;;1.40;0.80;;;14.20;99.90;;;;;;4874695;29;20320;-89
2023/07/08 10:22:25;;;;;;;0.90;0.63;;;14.10;99.90;;;;;;4879948;29;20614;-88
2023/07/08 10:25:07;;;;;;;1.93;0.70;;;14.10;99.90;;;;;;4880671;29;20823;-89
2023/07/08 10:27:45;;;;;;;1.63;1.00;;;14.10;99.90;;;;;;4880005;29;20290;-90
2023/07/08 10:30:23;;;;;;;2.10;0.97;;;14.10;99.90;;;;;;4878976;29;20214;-89
2023/07/08 10:33:14;;;;;;;2.83;0.80;;;14.10;99.90;;;;;;4882964;29;20269;-90
2023/07/08 10:35:56;;;;;;;1.00;0.60;;;14.10;99.90;;;;;;4890210;29;20585;-89
2023/07/08 10:38:48;;;;;;;1.30;0.60;;;14.10;99.90;;;;;;4882610;29;20230;-89
2023/07/08 10:41:28;;;;;;;1.40;0.77;;;14.10;99.90;;;;;;4867153;29;20215;-89
2023/07/08 10:44:08;;;;;;;2.07;0.60;;;14.10;99.90;;;;;;4883934;29;20206;-90
2023/07/08 10:46:50;;;;;;;2.17;0.70;;;14.10;99.90;;;;;;4885502;29;20641;-90
2023/07/08 10:49:52;;;;;;;1.27;0.60;;;14.20;99.90;;;;;;4883499;29;20245;-89
2023/07/08 10:52:40;;;;;;;1.53;0.80;;;14.10;99.90;;;;;;4897557;29;20210;-89
2023/07/08 10:55:27;;;;;;;1.33;0.83;;;14.00;99.90;;;;;;4866405;29;20222;-90
2023/07/08 10:58:38;;;;;;;0.60;0.60;;;14.00;99.90;;;;;;4882655;29;20206;-90
2023/07/08 11:01:21;;;;;;;3.80;1.00;;;14.00;99.90;;;;;;4866564;29;20726;-90
2023/07/08 11:04:09;;;;;;;1.07;0.70;;;14.00;99.90;;;;;;4875280;29;20215;-91
2023/07/08 11:06:50;;;;;;;0.80;0.60;;;14.00;99.90;;;;;;4877669;29;20651;-90
2023/07/08 11:09:29;;;;;;;1.47;0.70;;;13.90;99.90;;;;;;4868614;29;20217;-89
2023/07/08 11:12:08;;;;;;;0.70;0.70;;;13.90;99.90;;;;;;4876556;29;20297;-91
2023/07/08 11:14:51;;;;;;;2.10;0.67;;;13.80;99.90;;;;;;4880091;29;20225;-90
2023/07/08 11:17:29;;;;;;;2.80;1.00;;;13.80;99.90;;;;;;4888060;29;20189;-90
2023/07/08 11:20:15;;;;;;;2.60;0.70;;;13.80;99.90;;;;;;4899612;29;20237;-89
2023/07/08 11:22:55;;;;;;;1.60;0.77;;;13.80;99.90;;;;;;4889252;29;20309;-89
2023/07/08 11:25:30;;;;;;;0.90;0.80;;;13.80;99.90;;;;;;4873355;29;20678;-88
2023/07/08 11:28:05;;;;;;;2.20;0.80;;;13.80;99.90;;;;;;4879610;29;20304;-88
2023/07/08 11:30:42;;;;;;;2.13;0.80;;;13.80;99.90;;;;;;4883065;29;20214;-89
2023/07/08 11:33:16;;;;;;;1.40;0.63;;;13.80;99.90;;;;;;4875558;29;20300;-90
2023/07/08 11:35:52;;;;;;;3.07;1.07;;;13.70;99.90;;;;;;4883080;29;20228;-87
2023/07/08 11:38:23;;;;;;;2.37;0.80;;;13.70;99.90;;;;;;4883061;29;20215;-89
2023/07/08 11:41:01;;;;;;;1.00;0.73;;;13.70;99.90;;;;;;4870450;29;20739;-89
2023/07/08 11:43:44;;;;;;;1.47;0.97;;;13.80;99.90;;;;;;4883245;29;20222;-88
2023/07/08 11:46:20;;;;;;;1.67;0.73;;;13.80;99.90;;;;;;4879633;29;20206;-90
2023/07/08 11:48:53;;;;;;;1.30;0.53;;;13.80;99.90;;;;;;4894649;29;20223;-90
2023/07/08 11:51:30;;;;;;;1.73;0.90;;;13.70;99.90;;;;;;4899476;29;20190;-91
2023/07/08 11:54:09;;;;;;;1.47;0.77;;;13.70;99.90;;;;;;4899940;29;20270;-90
2023/07/08 11:56:59;;;;;;;0.70;0.70;;;13.70;99.90;;;;;;4888773;29;20247;-90
2023/07/08 11:59:34;;;;;;;1.50;0.80;;;13.70;99.90;;;;;;4866881;29;20354;-89
2023/07/08 12:02:13;;;;;;;0.90;0.50;;;13.70;99.90;;;;;;4870331;29;20207;-89
2023/07/08 12:05:02;;;;;;;0.93;0.60;;;13.70;99.90;;;;;;4868716;29;20218;-89
2023/07/08 12:07:35;;;;;;;0.87;0.70;;;13.60;99.90;;;;;;4882308;29;20671;-90
2023/07/08 12:10:14;;;;;;;1.07;0.70;;;13.60;99.90;;;;;;4884614;29;20221;-89
2023/07/08 12:12:48;;;;;;;3.83;1.00;;;13.60;99.90;;;;;;4880305;29;20301;-89
2023/07/08 12:15:24;;;;;;;1.43;0.70;;;13.50;99.90;;;;;;4881535;29;20245;-90
2023/07/08 12:17:58;;;;;;;0.77;0.70;;;13.50;99.90;;;;;;4878323;29;20217;-91
2023/07/08 12:20:31;;;;;;;3.03;0.90;;;13.40;99.90;;;;;;4879429;29;20237;-90
2023/07/08 12:23:03;;;;;;;1.77;0.77;;;13.40;99.90;;;;;;4879949;29;20217;-90
2023/07/08 12:25:36;;;;;;;2.03;0.70;;;13.40;99.90;;;;;;4881240;29;20207;-89
2023/07/08 12:28:12;;;;;;;0.93;0.67;;;13.40;99.90;;;;;;4881322;29;20249;-87
2023/07/08 12:30:44;;;;;;;1.77;0.83;;;13.40;99.90;;;;;;4867054;29;20232;-88
2023/07/08 12:33:20;;;;;;;0.77;0.60;;;13.40;99.90;;;;;;4869563;29;20238;-88
2023/07/08 12:35:52;;;;;;;1.33;0.83;;;13.40;99.90;;;;;;4877068;29;20210;-88
2023/07/08 12:38:29;;;;;;;1.63;0.90;;;13.40;99.90;;;;;;4878955;29;20214;-89
2023/07/08 12:41:04;;;;;;;1.43;0.80;;;13.40;99.90;;;;;;4874321;29;20298;-89
2023/07/08 12:43:38;;;;;;;2.00;0.87;;;13.40;99.90;;;;;;4880644;29;20210;-90
2023/07/08 12:46:12;;;;;;;1.60;0.60;;;13.40;99.90;;;;;;4880458;29;20229;-89
2023/07/08 12:48:44;;;;;;;1.27;0.70;;;13.40;99.90;;;;;;4871469;29;20690;-90
2023/07/08 12:51:20;;;;;;;1.23;0.87;;;13.50;99.90;;;;;;4874156;29;20270;-89
2023/07/08 12:53:54;;;;;;;2.33;0.90;;;13.50;99.90;;;;;;4870510;29;20219;-91
2023/07/08 12:56:26;;;;;;;1.63;0.77;;;13.50;99.90;;;;;;4876059;29;20579;-90
2023/07/08 12:59:00;;;;;;;1.53;1.07;;;13.50;99.90;;;;;;4880168;29;20303;-91
2023/07/08 13:01:34;;;;;;;1.80;0.80;;;13.60;99.90;;;;;;4879920;29;20234;-89
2023/07/08 13:04:07;;;;;;;2.83;1.30;;;13.60;99.90;;;;;;4874493;29;20214;-90
2023/07/08 13:06:41;;;;;;;1.10;0.70;;;13.80;99.90;;;;;;4880962;29;20587;-90
2023/07/08 13:09:46;;;;;;;0.90;0.83;;;13.90;99.90;;;;;;4881447;29;20214;-90
2023/07/08 13:12:23;;;;;;;2.50;0.90;;;14.00;99.90;;;;;;4858403;29;20239;-90
2023/07/08 13:15:01;;;;;;;0.83;0.73;;;14.10;99.90;;;;;;4880917;29;20297;-89
2023/07/08 13:17:34;;;;;;;2.73;0.90;;;14.00;99.90;;;;;;4880052;29;20225;-89
2023/07/08 13:20:06;;;;;;;1.30;0.90;;;14.10;99.90;;;;;;4865654;29;20238;-89
2023/07/08 13:22:38;;;;;;;0.83;0.70;;;14.20;99.90;;;;;;4880509;29;20215;-89
2023/07/08 13:25:17;;;;;;;1.93;0.80;;;14.30;99.90;;;;;;4883044;29;20215;-90